This is the latest recevied weather packets stored in our database for station/object GW1598. If no packets are shown the sender has not sent any weather packets the latest 10 day(s).
| Time | Temp. | Humidity | Pressure | Rain* | Wind** | Luminosity | Snow |
|---|---|---|---|---|---|---|---|
| 1777495513 | 17.78° C | 95% | 1001.6 hPa | 3.56 mm | - | - | - |
| 1777480774 | 20° C | 82% | 1003.3 hPa | 0 mm | - | - | - |
| 1777475003 | 18.89° C | 90% | 1004 hPa | 0 mm | - | - | - |
| 1777473589 | 18.33° C | 93% | 1004 hPa | 0 mm | - | - | - |
| 1777468160 | 18.33° C | 94% | 1005 hPa | 0 mm | - | - | - |
| 1777463144 | 16.11° C | 98% | 1005 hPa | 0 mm | - | - | - |
| 1777452313 | 15.56° C | 97% | 1005 hPa | 0 mm | - | - | - |
| 1777450150 | 15.56° C | 97% | 1005.4 hPa | 0 mm | - | - | - |
| 1777449460 | 15.56° C | 97% | 1005.7 hPa | 0 mm | - | - | - |
| 1777449099 | 15.56° C | 97% | 1005.7 hPa | 0 mm | - | - | - |
| 1777442072 | 16.67° C | 94% | 1006.7 hPa | 0 mm | - | - | - |
| 1777441332 | 17.78° C | 91% | 1006.7 hPa | 0 mm | - | - | - |
| 1777438126 | 18.89° C | 87% | 1007.4 hPa | 0 mm | - | - | - |
| 1777436667 | 18.89° C | 88% | 1007.7 hPa | 0 mm | - | - | - |
| 1777433447 | 17.78° C | 90% | 1007.7 hPa | 9.91 mm | - | - | - |
| 1777431256 | 17.22° C | 93% | 1008.4 hPa | 9.91 mm | - | - | - |
| 1777430213 | 17.22° C | 93% | 1008.4 hPa | 9.91 mm | - | - | - |
| 1777428392 | 17.22° C | 92% | 1008.8 hPa | 9.91 mm | - | - | - |
| 1777423167 | 20.56° C | 80% | 1007.7 hPa | 9.91 mm | - | - | - |
| 1777421908 | 21.11° C | 77% | 1008.1 hPa | 9.91 mm | - | - | - |
| 1777421013 | 22.22° C | 74% | 1008.1 hPa | 9.91 mm | - | - | - |
| 1777418847 | 23.89° C | 70% | 1006.4 hPa | 9.91 mm | - | - | - |
| 1777416343 | 24.44° C | 65% | 1007.4 hPa | 9.91 mm | - | - | - |
| 1777414910 | 25° C | 65% | 1007.4 hPa | 9.91 mm | - | - | - |
| 1777414553 | 25° C | 65% | 1007.4 hPa | 9.91 mm | - | - | - |
* Rain since midnight (hover to see other rain measurements)
** Current wind speed in m/s (hover to see current wind gust speed)